sensor_id;sensor_type;location;lat;lon;timestamp;pressure;altitude;pressure_sealevel;temperature;humidity
52797;BME280;38666;43.348;12.584;2023-01-28T06:54:13;95381.91;;;0.01;100.00
52797;BME280;38666;43.348;12.584;2023-01-28T06:56:38;95378.53;;;0.17;99.98
52797;BME280;38666;43.348;12.584;2023-01-28T06:59:04;95369.13;;;0.23;99.74
52797;BME280;38666;43.348;12.584;2023-01-28T07:01:29;95378.75;;;0.24;98.45
52797;BME280;38666;43.348;12.584;2023-01-28T07:03:55;95374.47;;;0.35;97.58
52797;BME280;38666;43.348;12.584;2023-01-28T07:06:21;95372.19;;;0.38;97.52
52797;BME280;38666;43.348;12.584;2023-01-28T07:08:46;95378.72;;;0.37;96.98
52797;BME280;38666;43.348;12.584;2023-01-28T07:11:12;95382.94;;;0.38;96.63
52797;BME280;38666;43.348;12.584;2023-01-28T07:13:37;95383.84;;;0.42;95.62
52797;BME280;38666;43.348;12.584;2023-01-28T07:16:03;95390.91;;;0.34;96.01
52797;BME280;38666;43.348;12.584;2023-01-28T07:18:29;95411.81;;;0.53;96.53
52797;BME280;38666;43.348;12.584;2023-01-28T07:20:55;95413.47;;;0.58;94.39
52797;BME280;38666;43.348;12.584;2023-01-28T07:23:21;95421.44;;;0.42;95.80
52797;BME280;38666;43.348;12.584;2023-01-28T07:25:47;95409.16;;;0.41;95.51
52797;BME280;38666;43.348;12.584;2023-01-28T07:28:13;95420.88;;;0.48;94.73
52797;BME280;38666;43.348;12.584;2023-01-28T07:30:47;95413.38;;;0.42;94.88
52797;BME280;38666;43.348;12.584;2023-01-28T07:33:12;95405.53;;;0.49;93.58
52797;BME280;38666;43.348;12.584;2023-01-28T07:35:37;95427.94;;;0.53;92.78
52797;BME280;38666;43.348;12.584;2023-01-28T07:38:03;95431.75;;;0.81;91.06
52797;BME280;38666;43.348;12.584;2023-01-28T07:40:28;95441.75;;;0.68;90.80
52797;BME280;38666;43.348;12.584;2023-01-28T07:42:54;95447.50;;;0.95;89.15
52797;BME280;38666;43.348;12.584;2023-01-28T07:45:21;95448.66;;;0.81;90.30
52797;BME280;38666;43.348;12.584;2023-01-28T07:47:58;95447.53;;;0.82;89.65
52797;BME280;38666;43.348;12.584;2023-01-28T07:50:25;95456.00;;;0.97;88.67
52797;BME280;38666;43.348;12.584;2023-01-28T07:52:51;95443.50;;;0.89;89.78
52797;BME280;38666;43.348;12.584;2023-01-28T07:55:16;95452.31;;;0.89;90.01
52797;BME280;38666;43.348;12.584;2023-01-28T07:57:53;95443.09;;;1.03;89.73
52797;BME280;38666;43.348;12.584;2023-01-28T08:00:20;95441.16;;;1.03;89.15
52797;BME280;38666;43.348;12.584;2023-01-28T08:02:46;95457.75;;;1.05;88.90
52797;BME280;38666;43.348;12.584;2023-01-28T08:05:16;95458.19;;;1.07;88.96
52797;BME280;38666;43.348;12.584;2023-01-28T08:07:42;95454.41;;;1.08;88.26
52797;BME280;38666;43.348;12.584;2023-01-28T08:10:09;95456.50;;;1.15;88.99
52797;BME280;38666;43.348;12.584;2023-01-28T08:12:34;95468.34;;;1.14;87.54
52797;BME280;38666;43.348;12.584;2023-01-28T08:15:00;95447.97;;;1.13;87.75
52797;BME280;38666;43.348;12.584;2023-01-28T08:17:27;95474.63;;;1.63;84.56
52797;BME280;38666;43.348;12.584;2023-01-28T08:19:52;95476.25;;;1.68;84.09
52797;BME280;38666;43.348;12.584;2023-01-28T08:22:18;95465.84;;;1.50;84.44
52797;BME280;38666;43.348;12.584;2023-01-28T08:24:43;95483.22;;;1.53;83.35
52797;BME280;38666;43.348;12.584;2023-01-28T08:27:08;95485.47;;;1.51;83.74
52797;BME280;38666;43.348;12.584;2023-01-28T08:29:34;95479.38;;;1.54;83.28
52797;BME280;38666;43.348;12.584;2023-01-28T08:31:59;95489.63;;;1.64;83.14
52797;BME280;38666;43.348;12.584;2023-01-28T08:34:25;95482.69;;;1.63;82.90
52797;BME280;38666;43.348;12.584;2023-01-28T08:36:50;95490.28;;;2.06;79.66
52797;BME280;38666;43.348;12.584;2023-01-28T08:39:15;95498.34;;;1.90;80.82
52797;BME280;38666;43.348;12.584;2023-01-28T08:41:41;95499.09;;;2.39;77.90
52797;BME280;38666;43.348;12.584;2023-01-28T08:44:06;95507.97;;;2.07;79.18
52797;BME280;38666;43.348;12.584;2023-01-28T08:46:32;95506.88;;;1.92;81.15
52797;BME280;38666;43.348;12.584;2023-01-28T08:48:57;95517.19;;;2.22;78.69
52797;BME280;38666;43.348;12.584;2023-01-28T08:51:23;95520.75;;;2.26;78.03
52797;BME280;38666;43.348;12.584;2023-01-28T08:53:48;95513.66;;;2.70;76.01
52797;BME280;38666;43.348;12.584;2023-01-28T08:56:13;95499.53;;;2.77;76.00
52797;BME280;38666;43.348;12.584;2023-01-28T08:58:39;95524.44;;;2.70;75.29
52797;BME280;38666;43.348;12.584;2023-01-28T09:01:05;95519.19;;;2.78;73.80
52797;BME280;38666;43.348;12.584;2023-01-28T09:03:31;95524.34;;;2.67;75.12
52797;BME280;38666;43.348;12.584;2023-01-28T09:06:03;95533.69;;;2.37;75.88
52797;BME280;38666;43.348;12.584;2023-01-28T09:08:29;95537.97;;;2.38;77.98
52797;BME280;38666;43.348;12.584;2023-01-28T09:10:55;95536.09;;;2.58;75.79
52797;BME280;38666;43.348;12.584;2023-01-28T09:13:21;95532.44;;;3.03;74.26
52797;BME280;38666;43.348;12.584;2023-01-28T09:15:47;95534.34;;;3.42;71.88
52797;BME280;38666;43.348;12.584;2023-01-28T09:18:13;95535.69;;;3.52;70.70
52797;BME280;38666;43.348;12.584;2023-01-28T09:20:38;95542.31;;;3.34;70.74
52797;BME280;38666;43.348;12.584;2023-01-28T09:23:04;95541.50;;;2.94;73.29
52797;BME280;38666;43.348;12.584;2023-01-28T09:25:30;95555.22;;;3.25;72.02
52797;BME280;38666;43.348;12.584;2023-01-28T09:27:56;95540.50;;;3.22;70.13
52797;BME280;38666;43.348;12.584;2023-01-28T09:30:22;95551.19;;;3.15;71.29
52797;BME280;38666;43.348;12.584;2023-01-28T09:32:52;95551.31;;;3.22;70.77
52797;BME280;38666;43.348;12.584;2023-01-28T09:35:17;95557.72;;;3.97;68.82
52797;BME280;38666;43.348;12.584;2023-01-28T09:37:44;95552.19;;;4.13;67.64
52797;BME280;38666;43.348;12.584;2023-01-28T09:40:15;95558.41;;;5.22;62.31
52797;BME280;38666;43.348;12.584;2023-01-28T09:45:20;95551.22;;;5.72;56.77
52797;BME280;38666;43.348;12.584;2023-01-28T09:47:51;95576.22;;;4.42;64.68
52797;BME280;38666;43.348;12.584;2023-01-28T09:53:01;95570.78;;;4.65;62.38
52797;BME280;38666;43.348;12.584;2023-01-28T09:55:33;95560.34;;;4.40;64.61
52797;BME280;38666;43.348;12.584;2023-01-28T09:58:00;95554.69;;;4.76;64.70
52797;BME280;38666;43.348;12.584;2023-01-28T10:00:33;95553.59;;;5.77;60.20
52797;BME280;38666;43.348;12.584;2023-01-28T10:11:38;95551.69;;;10.79;45.11
52797;BME280;38666;43.348;12.584;2023-01-28T10:13:55;95552.09;;;11.55;42.13
52797;BME280;38666;43.348;12.584;2023-01-28T10:19:06;95564.63;;;10.22;44.75
52797;BME280;38666;43.348;12.584;2023-01-28T10:21:43;95545.94;;;9.45;46.36
52797;BME280;38666;43.348;12.584;2023-01-28T10:24:16;95545.28;;;9.94;45.88
52797;BME280;38666;43.348;12.584;2023-01-28T10:26:43;95558.00;;;10.73;42.63
52797;BME280;38666;43.348;12.584;2023-01-28T10:29:16;95553.31;;;9.48;45.64
52797;BME280;38666;43.348;12.584;2023-01-28T10:31:59;95539.44;;;10.99;43.20
52797;BME280;38666;43.348;12.584;2023-01-28T10:34:27;95557.56;;;11.55;40.90
52797;BME280;38666;43.348;12.584;2023-01-28T10:36:52;95532.88;;;9.86;44.45
52797;BME280;38666;43.348;12.584;2023-01-28T10:39:20;95529.56;;;11.43;42.04
52797;BME280;38666;43.348;12.584;2023-01-28T10:41:47;95539.88;;;11.63;41.05
52797;BME280;38666;43.348;12.584;2023-01-28T10:44:37;95549.47;;;13.06;38.06
52797;BME280;38666;43.348;12.584;2023-01-28T10:47:12;95530.19;;;13.91;36.34
52797;BME280;38666;43.348;12.584;2023-01-28T10:49:48;95545.38;;;15.30;33.96
52797;BME280;38666;43.348;12.584;2023-01-28T10:52:15;95521.88;;;15.55;33.47
52797;BME280;38666;43.348;12.584;2023-01-28T10:54:41;95532.66;;;15.19;33.44
52797;BME280;38666;43.348;12.584;2023-01-28T10:57:10;95536.44;;;14.79;34.49
52797;BME280;38666;43.348;12.584;2023-01-28T10:59:38;95523.63;;;15.48;33.15
52797;BME280;38666;43.348;12.584;2023-01-28T11:02:27;95529.91;;;15.19;33.68
52797;BME280;38666;43.348;12.584;2023-01-28T11:05:13;95532.78;;;15.58;33.10
52797;BME280;38666;43.348;12.584;2023-01-28T11:07:40;95539.56;;;15.96;32.07
52797;BME280;38666;43.348;12.584;2023-01-28T11:10:25;95534.47;;;16.86;31.08
52797;BME280;38666;43.348;12.584;2023-01-28T11:12:55;95537.69;;;17.20;30.09
52797;BME280;38666;43.348;12.584;2023-01-28T11:15:21;95519.13;;;15.55;32.03
52797;BME280;38666;43.348;12.584;2023-01-28T11:17:55;95529.13;;;14.55;33.78
52797;BME280;38666;43.348;12.584;2023-01-28T11:20:23;95539.03;;;12.53;37.52
52797;BME280;38666;43.348;12.584;2023-01-28T11:22:50;95530.88;;;11.94;38.74
52797;BME280;38666;43.348;12.584;2023-01-28T11:27:49;95518.88;;;12.39;38.94
52797;BME280;38666;43.348;12.584;2023-01-28T11:30:30;95517.81;;;14.37;34.91
52797;BME280;38666;43.348;12.584;2023-01-28T11:35:38;95500.06;;;16.78;31.02
52797;BME280;38666;43.348;12.584;2023-01-28T11:38:16;95505.69;;;17.77;29.82
52797;BME280;38666;43.348;12.584;2023-01-28T11:40:49;95514.38;;;16.24;31.17
52797;BME280;38666;43.348;12.584;2023-01-28T11:43:16;95508.25;;;14.75;33.89
52797;BME280;38666;43.348;12.584;2023-01-28T11:51:08;95506.34;;;13.10;35.91
52797;BME280;38666;43.348;12.584;2023-01-28T11:59:49;95503.81;;;14.14;35.27
52797;BME280;38666;43.348;12.584;2023-01-28T12:16:29;95493.59;;;17.29;29.92
52797;BME280;38666;43.348;12.584;2023-01-28T12:19:36;95505.38;;;17.52;29.69
52797;BME280;38666;43.348;12.584;2023-01-28T12:44:43;95502.94;;;11.79;39.48
52797;BME280;38666;43.348;12.584;2023-01-28T12:47:15;95505.78;;;11.40;40.94
52797;BME280;38666;43.348;12.584;2023-01-28T12:49:55;95499.38;;;10.35;42.53
52797;BME280;38666;43.348;12.584;2023-01-28T12:52:35;95512.75;;;12.04;40.71
52797;BME280;38666;43.348;12.584;2023-01-28T12:57:50;95507.31;;;13.61;36.02
52797;BME280;38666;43.348;12.584;2023-01-28T13:00:29;95518.56;;;11.47;40.23
52797;BME280;38666;43.348;12.584;2023-01-28T13:03:04;95508.31;;;11.24;41.28
52797;BME280;38666;43.348;12.584;2023-01-28T13:05:37;95521.78;;;12.01;39.35
52797;BME280;38666;43.348;12.584;2023-01-28T13:08:14;95510.41;;;11.43;40.55
52797;BME280;38666;43.348;12.584;2023-01-28T13:10:44;95510.31;;;9.78;43.78
52797;BME280;38666;43.348;12.584;2023-01-28T13:15:47;95513.72;;;7.61;49.37
52797;BME280;38666;43.348;12.584;2023-01-28T13:21:28;95524.94;;;7.45;50.39
52797;BME280;38666;43.348;12.584;2023-01-28T13:31:41;95527.72;;;7.67;52.46
52797;BME280;38666;43.348;12.584;2023-01-28T13:34:10;95514.13;;;7.67;51.22
52797;BME280;38666;43.348;12.584;2023-01-28T13:36:51;95514.47;;;7.43;52.38
52797;BME280;38666;43.348;12.584;2023-01-28T13:39:17;95518.50;;;8.19;50.28
52797;BME280;38666;43.348;12.584;2023-01-28T13:41:45;95526.25;;;10.40;44.67
52797;BME280;38666;43.348;12.584;2023-01-28T13:46:57;95509.41;;;9.99;43.59
52797;BME280;38666;43.348;12.584;2023-01-28T13:49:54;95517.59;;;7.53;50.27
52797;BME280;38666;43.348;12.584;2023-01-28T13:52:57;95539.78;;;6.88;53.62
52797;BME280;38666;43.348;12.584;2023-01-28T13:55:26;95556.50;;;6.33;55.11
52797;BME280;38666;43.348;12.584;2023-01-28T13:58:11;95534.97;;;5.72;56.79
52797;BME280;38666;43.348;12.584;2023-01-28T14:09:13;95550.25;;;4.88;63.22
52797;BME280;38666;43.348;12.584;2023-01-28T14:16:48;95548.53;;;4.52;65.77
52797;BME280;38666;43.348;12.584;2023-01-28T14:19:22;95548.09;;;4.47;66.02
52797;BME280;38666;43.348;12.584;2023-01-28T14:21:51;95551.47;;;4.16;67.94
52797;BME280;38666;43.348;12.584;2023-01-28T14:24:18;95553.75;;;4.14;67.25
52797;BME280;38666;43.348;12.584;2023-01-28T14:31:55;95552.66;;;4.42;67.05
52797;BME280;38666;43.348;12.584;2023-01-28T14:34:27;95560.59;;;4.08;67.69
52797;BME280;38666;43.348;12.584;2023-01-28T14:37:00;95578.88;;;4.15;67.95
52797;BME280;38666;43.348;12.584;2023-01-28T14:39:30;95559.63;;;4.43;66.82
52797;BME280;38666;43.348;12.584;2023-01-28T14:41:58;95567.63;;;4.36;67.58
52797;BME280;38666;43.348;12.584;2023-01-28T14:44:29;95583.81;;;4.32;66.84
52797;BME280;38666;43.348;12.584;2023-01-28T14:50:04;95573.72;;;4.06;67.76
52797;BME280;38666;43.348;12.584;2023-01-28T14:58:32;95598.22;;;3.73;70.24
52797;BME280;38666;43.348;12.584;2023-01-28T15:01:00;95598.06;;;3.66;69.88
52797;BME280;38666;43.348;12.584;2023-01-28T15:03:27;95593.94;;;3.72;69.03
52797;BME280;38666;43.348;12.584;2023-01-28T15:06:13;95603.91;;;3.68;69.36
52797;BME280;38666;43.348;12.584;2023-01-28T15:08:38;95589.31;;;3.53;70.33
52797;BME280;38666;43.348;12.584;2023-01-28T15:11:05;95594.91;;;3.24;73.10
52797;BME280;38666;43.348;12.584;2023-01-28T15:13:36;95597.78;;;3.32;72.15
52797;BME280;38666;43.348;12.584;2023-01-28T15:16:03;95592.66;;;3.27;72.58
52797;BME280;38666;43.348;12.584;2023-01-28T15:18:33;95605.22;;;3.39;72.42
52797;BME280;38666;43.348;12.584;2023-01-28T15:20:59;95599.06;;;3.18;73.69
52797;BME280;38666;43.348;12.584;2023-01-28T15:23:36;95611.19;;;2.92;74.05
52797;BME280;38666;43.348;12.584;2023-01-28T15:28:37;95617.13;;;2.82;75.70
52797;BME280;38666;43.348;12.584;2023-01-28T15:31:04;95622.78;;;2.76;76.84
52797;BME280;38666;43.348;12.584;2023-01-28T15:33:29;95623.66;;;2.81;76.39
52797;BME280;38666;43.348;12.584;2023-01-28T15:35:56;95629.94;;;2.85;76.74
52797;BME280;38666;43.348;12.584;2023-01-28T15:38:25;95639.50;;;2.66;77.56
52797;BME280;38666;43.348;12.584;2023-01-28T15:40:57;95634.22;;;2.53;77.67
52797;BME280;38666;43.348;12.584;2023-01-28T15:43:28;95641.69;;;2.76;77.18
52797;BME280;38666;43.348;12.584;2023-01-28T15:45:56;95634.13;;;2.66;77.95
52797;BME280;38666;43.348;12.584;2023-01-28T15:48:31;95643.88;;;2.55;78.07
52797;BME280;38666;43.348;12.584;2023-01-28T15:51:00;95645.34;;;2.52;78.54
52797;BME280;38666;43.348;12.584;2023-01-28T15:53:33;95655.94;;;2.45;78.99
52797;BME280;38666;43.348;12.584;2023-01-28T15:56:13;95652.78;;;2.26;80.30
52797;BME280;38666;43.348;12.584;2023-01-28T15:58:39;95664.53;;;2.18;81.58
52797;BME280;38666;43.348;12.584;2023-01-28T16:03:34;95655.63;;;2.01;83.15
52797;BME280;38666;43.348;12.584;2023-01-28T16:11:09;95657.16;;;1.86;84.09
52797;BME280;38666;43.348;12.584;2023-01-28T16:13:41;95663.38;;;1.74;85.17
52797;BME280;38666;43.348;12.584;2023-01-28T16:16:08;95664.03;;;1.71;85.66
52797;BME280;38666;43.348;12.584;2023-01-28T16:18:48;95659.94;;;1.61;86.40
52797;BME280;38666;43.348;12.584;2023-01-28T16:21:31;95667.13;;;1.57;86.95
52797;BME280;38666;43.348;12.584;2023-01-28T16:24:05;95668.81;;;1.62;87.46
52797;BME280;38666;43.348;12.584;2023-01-28T16:26:34;95674.97;;;1.50;88.67
52797;BME280;38666;43.348;12.584;2023-01-28T16:29:10;95678.34;;;1.47;88.65
52797;BME280;38666;43.348;12.584;2023-01-28T16:31:37;95664.94;;;1.34;89.65
52797;BME280;38666;43.348;12.584;2023-01-28T16:34:02;95675.91;;;1.41;90.07
52797;BME280;38666;43.348;12.584;2023-01-28T16:36:28;95680.94;;;1.43;89.88
52797;BME280;38666;43.348;12.584;2023-01-28T16:38:53;95685.47;;;1.39;89.96
52797;BME280;38666;43.348;12.584;2023-01-28T16:41:25;95683.53;;;1.39;90.42
52797;BME280;38666;43.348;12.584;2023-01-28T16:43:52;95682.31;;;1.37;90.47
52797;BME280;38666;43.348;12.584;2023-01-28T16:46:17;95684.31;;;1.40;90.51
52797;BME280;38666;43.348;12.584;2023-01-28T16:48:43;95680.06;;;1.39;90.94
52797;BME280;38666;43.348;12.584;2023-01-28T16:51:15;95696.66;;;1.28;91.49
52797;BME280;38666;43.348;12.584;2023-01-28T16:53:41;95686.94;;;1.24;92.37
52797;BME280;38666;43.348;12.584;2023-01-28T16:56:21;95692.88;;;1.29;92.40
52797;BME280;38666;43.348;12.584;2023-01-28T16:58:47;95679.19;;;1.22;92.10
52797;BME280;38666;43.348;12.584;2023-01-28T17:01:12;95680.63;;;1.19;92.05
52797;BME280;38666;43.348;12.584;2023-01-28T17:03:38;95681.94;;;1.51;90.24
52797;BME280;38666;43.348;12.584;2023-01-28T17:06:05;95694.53;;;1.34;90.83
52797;BME280;38666;43.348;12.584;2023-01-28T17:08:31;95694.31;;;1.27;91.74
52797;BME280;38666;43.348;12.584;2023-01-28T17:10:56;95702.16;;;1.32;90.78
52797;BME280;38666;43.348;12.584;2023-01-28T17:13:23;95699.56;;;1.48;89.89
52797;BME280;38666;43.348;12.584;2023-01-28T17:15:48;95708.75;;;1.47;89.99
52797;BME280;38666;43.348;12.584;2023-01-28T17:18:14;95710.78;;;1.38;90.44
52797;BME280;38666;43.348;12.584;2023-01-28T17:20:39;95716.19;;;1.25;90.59
52797;BME280;38666;43.348;12.584;2023-01-28T17:23:06;95729.41;;;1.18;91.83
52797;BME280;38666;43.348;12.584;2023-01-28T17:25:40;95719.09;;;1.07;92.63
52797;BME280;38666;43.348;12.584;2023-01-28T17:28:07;95734.69;;;1.14;92.52
52797;BME280;38666;43.348;12.584;2023-01-28T17:30:33;95751.94;;;1.26;92.21
52797;BME280;38666;43.348;12.584;2023-01-28T17:32:59;95730.88;;;1.03;92.62
52797;BME280;38666;43.348;12.584;2023-01-28T17:35:25;95733.22;;;0.92;94.22
52797;BME280;38666;43.348;12.584;2023-01-28T17:37:53;95740.84;;;0.90;95.10
52797;BME280;38666;43.348;12.584;2023-01-28T17:40:20;95743.75;;;0.97;94.68
52797;BME280;38666;43.348;12.584;2023-01-28T17:42:46;95750.28;;;0.96;94.47
52797;BME280;38666;43.348;12.584;2023-01-28T17:45:12;95737.59;;;0.96;95.02
52797;BME280;38666;43.348;12.584;2023-01-28T17:47:37;95758.13;;;1.01;94.25
52797;BME280;38666;43.348;12.584;2023-01-28T17:50:03;95755.19;;;1.06;94.01
52797;BME280;38666;43.348;12.584;2023-01-28T17:52:29;95765.38;;;1.01;94.60
52797;BME280;38666;43.348;12.584;2023-01-28T17:54:55;95752.06;;;1.04;95.23
52797;BME280;38666;43.348;12.584;2023-01-28T17:57:20;95757.00;;;1.15;93.25
52797;BME280;38666;43.348;12.584;2023-01-28T17:59:46;95767.63;;;1.11;94.24
52797;BME280;38666;43.348;12.584;2023-01-28T18:02:12;95773.34;;;0.97;94.72
52797;BME280;38666;43.348;12.584;2023-01-28T18:04:39;95771.91;;;1.12;94.74
52797;BME280;38666;43.348;12.584;2023-01-28T18:07:06;95770.22;;;1.20;93.87
52797;BME280;38666;43.348;12.584;2023-01-28T18:09:39;95776.84;;;1.23;94.49
52797;BME280;38666;43.348;12.584;2023-01-28T18:12:06;95776.06;;;1.22;92.99
52797;BME280;38666;43.348;12.584;2023-01-28T18:14:32;95785.69;;;1.23;93.39
52797;BME280;38666;43.348;12.584;2023-01-28T18:16:58;95784.59;;;1.37;92.60
52797;BME280;38666;43.348;12.584;2023-01-28T18:19:23;95785.69;;;1.23;93.07
52797;BME280;38666;43.348;12.584;2023-01-28T18:21:49;95783.09;;;1.27;93.98
52797;BME280;38666;43.348;12.584;2023-01-28T18:24:14;95796.22;;;1.28;93.36
52797;BME280;38666;43.348;12.584;2023-01-28T18:26:40;95802.03;;;1.18;93.64
52797;BME280;38666;43.348;12.584;2023-01-28T18:29:05;95800.03;;;1.15;95.28
52797;BME280;38666;43.348;12.584;2023-01-28T18:31:31;95806.88;;;1.37;94.18
52797;BME280;38666;43.348;12.584;2023-01-28T18:33:59;95810.59;;;1.32;93.60
52797;BME280;38666;43.348;12.584;2023-01-28T18:36:24;95819.78;;;1.31;93.90
52797;BME280;38666;43.348;12.584;2023-01-28T18:38:50;95819.34;;;1.29;94.38
52797;BME280;38666;43.348;12.584;2023-01-28T18:41:15;95818.09;;;1.52;93.70
52797;BME280;38666;43.348;12.584;2023-01-28T18:43:41;95815.06;;;1.41;93.13
52797;BME280;38666;43.348;12.584;2023-01-28T18:46:16;95814.28;;;1.53;92.56
52797;BME280;38666;43.348;12.584;2023-01-28T18:48:42;95805.41;;;1.65;91.83
52797;BME280;38666;43.348;12.584;2023-01-28T18:51:10;95811.72;;;1.56;91.21
